Time;durP1;ratioP1;P1;durP2;ratioP2;P2;SDS_P1;SDS_P2;PMS_P1;PMS_P2;Temp;Humidity;BMP_temperature;BMP_pressure;BME280_temperature;BME280_humidity;BME280_pressure;Samples;Min_cycle;Max_cycle;Signal;HPM_P1;HPM_P2
2021/06/10 00:13:20;;;;;;;9.18;7.25;;;;;;;-142.75;67.22;77418.78;5048708;28;20045;-73
2021/06/10 00:15:46;;;;;;;11.30;9.43;;;;;;;-142.75;68.03;77397.13;5032011;28;20025;-73
2021/06/10 00:18:11;;;;;;;8.82;6.20;;;;;;;-142.75;67.56;77403.03;5033322;28;20032;-73
2021/06/10 00:20:37;;;;;;;;;;;;;;;-142.75;64.88;77428.63;5052949;28;20390;-73
2021/06/10 00:23:05;;;;;;;6.60;5.53;;;;;;;-142.75;64.54;77436.50;5034067;28;19956;-74
2021/06/10 00:25:31;;;;;;;13.52;7.35;;;;;;;-142.75;65.92;77426.66;5031475;28;20540;-74
2021/06/10 00:27:59;;;;;;;14.88;10.93;;;;;;;-142.75;65.98;77430.59;5013680;28;20029;-74
2021/06/10 00:30:25;;;;;;;16.95;12.30;;;;;;;-142.75;68.09;77410.91;5051216;28;20024;-73
2021/06/10 00:32:52;;;;;;;16.33;14.43;;;;;;;-142.75;68.80;77406.97;5053055;28;20062;-73
2021/06/10 00:35:19;;;;;;;17.60;14.52;;;;;;;-142.75;68.00;77403.03;5052116;28;20121;-73
2021/06/10 00:37:45;;;;;;;16.20;12.10;;;;;;;-142.75;67.18;77401.06;5051624;28;20032;-72
2021/06/10 00:40:12;;;;;;;14.00;11.50;;;;;;;-142.75;66.20;77405.00;5052594;28;20116;-73
2021/06/10 00:42:37;;;;;;;14.18;11.88;;;;;;;-142.75;65.25;77416.81;5028139;28;20022;-73
2021/06/10 00:45:06;;;;;;;15.27;11.73;;;;;;;-142.75;65.62;77420.75;5051987;28;20033;-73
2021/06/10 00:47:31;;;;;;;17.98;12.90;;;;;;;-142.75;65.60;77420.75;5035726;28;20029;-73
2021/06/10 00:49:57;;;;;;;16.08;13.65;;;;;;;-142.75;65.38;77430.59;5053059;28;20167;-73
2021/06/10 00:52:22;;;;;;;18.65;14.65;;;;;;;-142.75;66.42;77422.72;5034740;28;20017;-73
2021/06/10 00:54:47;;;;;;;18.90;15.40;;;;;;;-142.75;66.84;77420.75;5034719;28;20029;-72
2021/06/10 00:57:13;;;;;;;;;;;;;;;-142.75;67.06;77412.88;5036006;28;20033;-72
2021/06/10 00:59:38;;;;;;;18.13;13.38;;;;;;;-142.75;66.19;77418.78;5036975;28;19912;-72
2021/06/10 01:02:04;;;;;;;;;;;;;;;-142.75;66.38;77408.94;5016225;28;20454;-72
2021/06/10 01:04:29;;;;;;;16.65;13.18;;;;;;;-142.75;66.43;77406.97;5051487;28;20436;-73
2021/06/10 01:07:13;;;;;;;;;;;;;;;-142.75;65.32;77420.75;5052953;28;20025;-72
2021/06/10 01:10:29;;;;;;;11.50;9.63;;;;;;;-142.75;64.86;77448.34;5053192;28;20332;-72
2021/06/10 01:13:19;;;;;;;10.93;8.45;;;;;;;-142.75;64.81;77464.09;4991593;28;20041;-73
2021/06/10 01:15:51;;;;;;;11.60;8.15;;;;;;;-142.75;64.82;77466.03;5032901;28;20025;-73
2021/06/10 01:18:18;;;;;;;9.07;7.20;;;;;;;-142.75;64.91;77462.13;5033836;28;20056;-72
2021/06/10 01:20:44;;;;;;;7.95;6.38;;;;;;;-142.75;64.97;77452.25;5016188;28;20071;-72
2021/06/10 01:23:52;;;;;;;9.52;6.88;;;;;;;-142.75;64.50;77456.22;5032091;28;20025;-73
2021/06/10 01:26:48;;;;;;;10.18;7.53;;;;;;;-142.75;64.27;77452.25;5015273;28;20506;-73
2021/06/10 01:29:16;;;;;;;9.98;7.35;;;;;;;-142.75;64.38;77440.44;5014688;28;20033;-73
2021/06/10 01:31:42;;;;;;;11.68;7.35;;;;;;;-142.75;64.30;77434.53;5014816;28;20032;-73
2021/06/10 01:34:09;;;;;;;9.73;7.65;;;;;;;-142.75;64.31;77432.56;5013634;28;20033;-74
2021/06/10 01:36:39;;;;;;;10.85;7.38;;;;;;;-142.75;63.81;77432.56;5030675;28;20080;-74
2021/06/10 01:39:07;;;;;;;9.50;7.32;;;;;;;-142.75;63.87;77426.66;5013476;28;20116;-73
2021/06/10 01:41:35;;;;;;;10.55;7.43;;;;;;;-142.75;63.74;77424.69;5014005;28;20514;-73
2021/06/10 01:44:02;;;;;;;9.73;7.22;;;;;;;-142.75;63.92;77426.66;5031954;28;20522;-73
2021/06/10 01:46:29;;;;;;;11.80;7.72;;;;;;;-142.75;63.96;77424.69;5014124;28;20028;-73
2021/06/10 01:48:56;;;;;;;11.85;8.85;;;;;;;-142.75;64.39;77420.75;5032188;28;20551;-73
2021/06/10 01:51:24;;;;;;;8.98;7.32;;;;;;;-142.75;64.23;77416.81;5032951;28;20021;-73
2021/06/10 01:53:50;;;;;;;10.38;8.35;;;;;;;-142.75;63.91;77408.94;5014014;28;20043;-72
2021/06/10 01:56:17;;;;;;;12.02;9.00;;;;;;;-142.75;63.72;77408.94;5032430;28;20021;-73
2021/06/10 01:58:44;;;;;;;11.40;8.68;;;;;;;-142.75;64.06;77418.78;5013820;28;20022;-74
2021/06/10 02:01:12;;;;;;;15.25;10.55;;;;;;;-142.75;63.96;77416.81;5051971;28;20035;-73
2021/06/10 02:03:38;;;;;;;14.73;10.70;;;;;;;-142.75;64.54;77408.94;5030946;28;20086;-72
2021/06/10 02:06:05;;;;;;;15.15;13.13;;;;;;;-142.75;66.05;77397.13;5017150;28;20085;-72
2021/06/10 02:08:30;;;;;;;21.35;14.90;;;;;;;-142.75;66.18;77385.31;5032198;28;20025;-72
2021/06/10 02:10:57;;;;;;;20.80;14.35;;;;;;;-142.75;66.43;77385.31;5016294;28;20036;-73
2021/06/10 02:13:27;;;;;;;21.10;15.43;;;;;;;-142.75;67.06;77383.34;5031805;28;20517;-73
2021/06/10 02:15:56;;;;;;;20.27;16.20;;;;;;;-142.75;67.35;77389.25;5041032;28;20048;-73
2021/06/10 02:18:22;;;;;;;21.85;16.52;;;;;;;-142.75;67.58;77379.41;5028435;28;20375;-73
2021/06/10 02:20:47;;;;;;;22.15;15.68;;;;;;;-142.75;66.82;77365.63;5036946;28;20036;-74
2021/06/10 02:23:12;;;;;;;;;;;;;;;-142.75;66.67;77375.47;5051136;28;20394;-74
2021/06/10 02:25:37;;;;;;;17.70;14.60;;;;;;;-142.75;66.28;77377.44;5049866;28;19913;-73
2021/06/10 02:28:04;;;;;;;;;;;;;;;-142.75;66.73;77391.22;5033014;28;20482;-75
2021/06/10 02:30:30;;;;;;;21.48;15.80;;;;;;;-142.75;66.48;77403.03;5050311;28;19920;-74
2021/06/10 02:32:56;;;;;;;19.25;14.93;;;;;;;-142.75;66.67;77399.09;5051293;28;20124;-73
2021/06/10 02:35:21;;;;;;;20.23;14.35;;;;;;;-142.75;66.02;77405.00;5029981;28;20056;-73
2021/06/10 02:37:49;;;;;;;24.48;17.60;;;;;;;-142.75;67.19;77408.94;5025175;28;20020;-73
2021/06/10 02:40:20;;;;;;;21.63;17.33;;;;;;;-142.75;67.63;77414.84;5039174;28;20504;-74
2021/06/10 02:42:47;;;;;;;25.45;18.88;;;;;;;-142.75;67.58;77416.81;5056440;28;20371;-74
2021/06/10 02:45:14;;;;;;;27.27;20.42;;;;;;;-142.75;67.50;77414.84;5038146;28;20052;-73
2021/06/10 02:47:41;;;;;;;24.42;18.33;;;;;;;-142.75;67.54;77410.91;5055932;28;20025;-73
2021/06/10 02:50:10;;;;;;;22.83;17.83;;;;;;;-142.75;67.38;77420.75;5051448;23;20045;-74
2021/06/10 02:52:41;;;;;;;21.20;16.05;;;;;;;-142.75;66.86;77428.63;5044859;28;20536;-76
2021/06/10 02:55:07;;;;;;;25.13;17.67;;;;;;;-142.75;66.93;77432.56;5043215;28;20071;-74
2021/06/10 02:57:33;;;;;;;24.98;16.65;;;;;;;-142.75;66.67;77432.56;5033664;28;20022;-75
2021/06/10 02:59:59;;;;;;;18.98;14.98;;;;;;;-142.75;66.54;77432.56;5043116;28;20529;-74
2021/06/10 03:02:25;;;;;;;21.10;15.90;;;;;;;-142.75;66.52;77420.75;5047025;28;20100;-72
2021/06/10 03:04:51;;;;;;;23.33;15.40;;;;;;;-142.75;66.10;77418.78;5027546;28;20605;-74
2021/06/10 03:07:18;;;;;;;19.90;14.25;;;;;;;-142.75;65.64;77420.75;5014482;28;20017;-74
2021/06/10 03:09:45;;;;;;;16.70;13.13;;;;;;;-142.75;65.39;77436.50;5031842;28;20372;-73
2021/06/10 03:12:12;;;;;;;18.73;13.30;;;;;;;-142.75;65.14;77426.66;5031815;28;20053;-74
2021/06/10 03:14:41;;;;;;;18.58;14.23;;;;;;;-142.75;64.97;77428.63;5014138;28;20782;-74
2021/06/10 03:17:08;;;;;;;18.63;12.43;;;;;;;-142.75;64.72;77430.59;5031498;28;20061;-74
2021/06/10 03:19:33;;;;;;;16.60;11.88;;;;;;;-142.75;64.84;77424.69;5031702;28;20033;-74
2021/06/10 03:21:59;;;;;;;15.23;11.75;;;;;;;-142.75;64.78;77438.47;5031741;28;22022;-74
2021/06/10 03:24:25;;;;;;;13.93;10.52;;;;;;;-142.75;64.44;77452.25;5032106;28;20041;-72
2021/06/10 03:26:51;;;;;;;13.18;9.57;;;;;;;-142.75;63.88;77448.34;5051114;28;20028;-72
2021/06/10 03:29:18;;;;;;;12.48;8.95;;;;;;;-142.75;63.66;77454.25;5051324;28;20074;-74
2021/06/10 03:31:45;;;;;;;15.40;9.57;;;;;;;-142.75;63.64;77471.97;5033118;28;20491;-74
2021/06/10 03:34:10;;;;;;;12.52;8.57;;;;;;;-142.75;63.57;77479.84;5032239;28;20148;-74
2021/06/10 03:36:36;;;;;;;14.75;8.77;;;;;;;-142.75;63.54;77487.72;5041802;28;20116;-74
2021/06/10 03:39:01;;;;;;;;;;;;;;;-142.75;63.11;77495.59;5051515;28;20032;-73
2021/06/10 03:41:28;;;;;;;10.90;6.10;;;;;;;-142.75;62.18;77497.56;5033330;28;19928;-74
2021/06/10 03:43:54;;;;;;;8.07;5.05;;;;;;;-142.75;61.15;77495.59;5050997;28;20029;-73
2021/06/10 03:46:21;;;;;;;10.75;4.85;;;;;;;-142.75;60.87;77491.66;5032857;28;20013;-75
2021/06/10 03:48:46;;;;;;;;;;;;;;;-142.75;60.43;77485.75;5051032;28;20407;-74
2021/06/10 03:51:17;;;;;;;7.57;3.88;;;;;;;-142.75;60.38;77483.78;5046688;28;20012;-73
2021/06/10 03:53:46;;;;;;;5.90;3.47;;;;;;;-142.75;60.43;77491.66;5050909;28;20039;-73
2021/06/10 03:56:12;;;;;;;11.30;3.97;;;;;;;-142.75;60.39;77489.69;5050377;28;20631;-73
2021/06/10 03:58:37;;;;;;;6.93;3.38;;;;;;;-142.75;60.19;77487.72;5020600;28;20020;-72
2021/06/10 04:01:03;;;;;;;6.57;3.58;;;;;;;-142.75;59.88;77475.91;5045198;28;20029;-74
2021/06/10 04:03:28;;;;;;;;;;;;;;;-142.75;59.60;77466.03;5052168;28;20025;-75
2021/06/10 04:05:54;;;;;;;6.05;3.33;;;;;;;-142.75;59.49;77456.22;5041044;28;19920;-74
2021/06/10 04:08:20;;;;;;;7.82;3.55;;;;;;;-142.75;59.91;77452.25;5038289;28;20032;-72
2021/06/10 04:10:45;;;;;;;4.63;3.42;;;;;;;-142.75;60.07;77444.38;5041754;28;20029;-74
2021/06/10 04:13:10;;;;;;;6.32;3.80;;;;;;;-142.75;60.53;77444.38;5030500;28;20025;-74
2021/06/10 04:15:35;;;;;;;6.78;2.90;;;;;;;-142.75;59.94;77446.34;5029987;28;20108;-74
2021/06/10 04:18:01;;;;;;;4.80;2.75;;;;;;;-142.75;59.90;77438.47;5017721;28;20613;-74
2021/06/10 04:20:26;;;;;;;;;;;;;;;-142.75;60.60;77432.56;5050439;28;20609;-74
2021/06/10 04:22:51;;;;;;;5.50;3.45;;;;;;;-142.75;60.37;77436.50;5048615;28;19917;-73
2021/06/10 04:25:17;;;;;;;;;;;;;;;-142.75;60.21;77426.66;5031139;28;20399;-75
2021/06/10 04:27:42;;;;;;;5.10;2.92;;;;;;;-142.75;59.88;77414.84;5030371;28;19918;-74
2021/06/10 04:30:12;;;;;;;;;;;;;;;-142.75;60.22;77391.22;5042114;28;20367;-74
2021/06/10 04:32:38;;;;;;;8.93;3.40;;;;;;;-142.75;60.83;77373.50;5043812;28;19923;-74
2021/06/10 04:35:06;;;;;;;8.80;3.95;;;;;;;-142.75;60.97;77373.50;5050508;28;20108;-73
2021/06/10 04:37:31;;;;;;;6.00;3.85;;;;;;;-142.75;60.98;77371.53;5018571;28;20033;-74
2021/06/10 04:39:57;;;;;;;8.48;3.40;;;;;;;-142.75;61.62;77367.59;5011195;28;20025;-74
2021/06/10 04:42:23;;;;;;;7.80;4.28;;;;;;;-142.75;60.97;77369.56;5042029;28;20028;-74
2021/06/10 04:44:48;;;;;;;8.40;3.53;;;;;;;-142.75;61.25;77365.63;5022591;28;20029;-73
2021/06/10 04:47:13;;;;;;;;;;;;;;;-142.75;61.03;77357.75;5040779;28;20067;-74
2021/06/10 04:49:39;;;;;;;7.88;2.90;;;;;;;-142.75;60.44;77349.88;5041120;28;19925;-75
2021/06/10 04:52:04;;;;;;;;;;;;;;;-142.75;60.21;77349.88;5049283;28;20025;-74
2021/06/10 04:54:30;;;;;;;4.75;3.20;;;;;;;-142.75;59.79;77340.03;5033279;28;19960;-74
2021/06/10 04:56:55;;;;;;;7.70;2.72;;;;;;;-142.75;59.85;77324.28;5037164;28;20044;-74
2021/06/10 04:59:21;;;;;;;;;;;;;;;-142.75;59.94;77318.38;5046842;28;20021;-74
2021/06/10 05:01:46;;;;;;;6.63;3.08;;;;;;;-142.75;59.79;77310.50;5047383;28;19913;-76
2021/06/10 05:04:11;;;;;;;;;;;;;;;-142.75;59.32;77296.72;5033894;28;20666;-74
2021/06/10 05:06:36;;;;;;;9.20;2.88;;;;;;;-142.75;58.86;77282.94;5023403;28;20000;-75
2021/06/10 05:09:02;;;;;;;;;;;;;;;-142.75;59.47;77259.31;5015667;28;20033;-74
2021/06/10 05:11:27;;;;;;;7.78;2.55;;;;;;;-142.75;60.19;77251.44;5019292;28;19963;-75
2021/06/10 05:13:52;;;;;;;;;;;;;;;-142.75;58.74;77243.56;5037462;28;20037;-74
2021/06/10 05:16:18;;;;;;;5.20;2.22;;;;;;;-142.75;59.36;77231.75;5031466;28;20000;-74
2021/06/10 05:18:43;;;;;;;;;;;;;;;-142.75;58.99;77214.03;5021489;28;20450;-75
2021/06/10 05:21:08;;;;;;;6.38;2.50;;;;;;;-142.75;58.82;77200.25;5031812;28;20488;-72
2021/06/10 05:23:34;;;;;;;;;;;;;;;-142.75;57.08;77178.59;5041494;28;20437;-75
2021/06/10 05:25:59;;;;;;;5.30;2.53;;;;;;;-142.75;57.01;77149.06;5041528;28;20374;-75
2021/06/10 05:28:24;;;;;;;;;;;;;;;-142.75;57.05;77125.44;5037708;28;20035;-76
2021/06/10 05:30:50;;;;;;;5.05;3.03;;;;;;;-142.75;56.50;77095.91;5022547;28;19944;-74
2021/06/10 05:33:15;;;;;;;;;;;;;;;-142.75;55.17;77078.19;5037773;28;20024;-75
2021/06/10 05:35:40;;;;;;;6.05;2.75;;;;;;;-142.75;55.92;77056.53;5020764;28;19952;-77
2021/06/10 05:38:05;;;;;;;;;;;;;;;-142.75;55.42;77034.88;5038447;28;20029;-75
2021/06/10 05:40:31;;;;;;;6.97;2.40;;;;;;;-142.75;55.95;77005.34;5038681;28;19913;-76
2021/06/10 05:42:56;;;;;;;;;;;;;;;-142.75;55.53;76979.75;5021518;28;20074;-75
2021/06/10 05:45:22;;;;;;;9.20;3.00;;;;;;;-142.75;54.26;76952.19;5022873;28;20401;-75
2021/06/10 05:47:47;;;;;;;;;;;;;;;-142.75;53.28;76906.91;5038667;28;20039;-76
2021/06/10 05:50:12;;;;;;;8.07;2.30;;;;;;;-142.75;51.70;76877.38;5017013;28;19948;-75
2021/06/10 05:52:39;;;;;;;;;;;;;;;-142.75;52.01;76845.88;5043026;28;20025;-75
2021/06/10 05:55:06;;;;;;;5.82;2.60;;;;;;;-142.75;51.14;76802.56;5022335;28;19913;-75
2021/06/10 05:57:31;;;;;;;5.57;2.70;;;;;;;-142.75;50.94;76769.13;5042289;28;20494;-75
2021/06/10 05:59:56;;;;;;;6.90;2.55;;;;;;;-142.75;48.65;76725.81;5022803;28;20071;-76
2021/06/10 06:02:21;;;;;;;;;;;;;;;-142.75;47.14;76708.09;5037373;28;20029;-75
2021/06/10 06:04:47;;;;;;;6.32;2.47;;;;;;;-142.75;45.84;76672.66;5017976;28;19913;-75
2021/06/10 06:07:13;;;;;;;;;;;;;;;-142.75;45.52;76664.78;5030767;28;20033;-75
2021/06/10 06:09:38;;;;;;;4.65;1.95;;;;;;;-142.75;44.86;76643.13;5021003;28;20266;-75
2021/06/10 06:12:09;;;;;;;4.18;2.10;;;;;;;-142.75;44.98;76617.53;5043006;28;20029;-75
2021/06/10 06:14:35;;;;;;;4.63;2.10;;;;;;;-142.75;45.93;76578.16;5023022;28;20037;-76
2021/06/10 06:17:05;;;;;;;7.10;2.30;;;;;;;-142.75;45.23;76534.84;5045710;28;20029;-75
2021/06/10 06:19:32;;;;;;;4.35;1.80;;;;;;;-142.75;44.43;76491.56;5037026;28;20483;-74
2021/06/10 06:21:57;;;;;;;6.88;2.50;;;;;;;-142.75;44.31;76467.94;5043821;28;20026;-75
2021/06/10 06:24:22;;;;;;;4.35;2.08;;;;;;;-142.75;42.72;76446.28;5040856;28;20021;-75
2021/06/10 06:26:48;;;;;;;6.53;1.70;;;;;;;-142.75;41.91;76440.38;5038542;28;20036;-75
2021/06/10 06:29:13;;;;;;;6.40;1.95;;;;;;;-142.75;41.04;76416.75;5041669;28;20617;-75
2021/06/10 06:31:38;;;;;;;5.63;1.98;;;;;;;-142.75;41.96;76404.94;5041353;28;20110;-75
2021/06/10 06:34:04;;;;;;;5.43;1.92;;;;;;;-142.75;42.18;76371.47;5042550;28;20024;-75
2021/06/10 06:36:30;;;;;;;4.05;2.08;;;;;;;-142.75;42.72;76347.84;5041914;28;20029;-74
2021/06/10 06:38:56;;;;;;;5.55;2.10;;;;;;;-142.75;41.66;76328.19;5038564;28;20025;-75
2021/06/10 06:41:22;;;;;;;5.18;2.08;;;;;;;-142.75;41.22;76324.25;5028776;28;20608;-74
2021/06/10 06:43:47;;;;;;;71.28;5.30;;;;;;;-142.75;61.70;76300.63;5049302;28;20033;-75
2021/06/10 06:46:12;;;;;;;5.28;2.20;;;;;;;-142.75;72.39;76408.88;5024747;28;20107;-74
2021/06/10 06:48:38;;;;;;;4.15;1.88;;;;;;;-142.75;59.06;76357.69;5029523;28;20052;-74
2021/06/10 06:51:05;;;;;;;7.55;2.30;;;;;;;-142.75;42.35;76277.00;5023218;28;20029;-75
2021/06/10 06:53:32;;;;;;;6.40;2.20;;;;;;;-142.75;41.62;76204.16;5039180;28;20051;-74
2021/06/10 06:55:59;;;;;;;6.57;2.05;;;;;;;-142.75;39.29;76119.53;5033468;28;20025;-74
2021/06/10 06:58:24;;;;;;;6.32;1.80;;;;;;;-142.75;37.31;76038.84;5040283;28;20029;-75
2021/06/10 07:00:50;;;;;;;5.95;1.88;;;;;;;-142.75;36.90;75983.72;5033527;28;20025;-75
2021/06/10 07:03:15;;;;;;;6.25;1.90;;;;;;;-142.75;35.75;75940.44;5031867;28;20044;-74
2021/06/10 07:05:41;;;;;;;5.75;1.98;;;;;;;-142.75;35.77;75889.25;5034185;28;20031;-75
2021/06/10 07:08:06;;;;;;;6.57;2.10;;;;;;;-142.75;35.60;75842.03;5044972;28;20102;-75
2021/06/10 07:10:31;;;;;;;5.60;1.90;;;;;;;-142.75;34.90;75792.81;5041365;28;20104;-74
2021/06/10 07:12:57;;;;;;;5.55;1.88;;;;;;;-142.75;33.10;75782.97;5022496;28;20025;-74
2021/06/10 07:15:22;;;;;;;3.58;2.00;;;;;;;-142.75;34.02;75930.59;5046828;28;20545;-75
2021/06/10 07:17:47;;;;;;;4.38;1.75;;;;;;;-142.75;34.48;75806.59;5016989;28;20033;-76
2021/06/10 07:20:13;;;;;;;4.00;1.70;;;;;;;-142.75;33.53;75794.78;5031230;28;20033;-77
2021/06/10 07:22:39;;;;;;;5.18;1.70;;;;;;;-142.75;33.33;75743.63;5037572;28;20032;-78
2021/06/10 07:25:06;;;;;;;5.03;1.60;;;;;;;-142.75;32.36;75708.19;5041083;28;20017;-74
2021/06/10 07:27:32;;;;;;;4.65;1.42;;;;;;;-142.75;30.93;75660.97;5047992;28;20025;-76
2021/06/10 07:29:59;;;;;;;3.03;1.60;;;;;;;-142.75;31.59;75627.50;5047599;28;20031;-76
2021/06/10 07:32:25;;;;;;;6.25;1.52;;;;;;;-142.75;31.32;75605.84;5045017;28;20025;-75
2021/06/10 07:34:50;;;;;;;3.78;1.65;;;;;;;-142.75;29.63;75597.97;5040593;28;20457;-75
2021/06/10 07:37:16;;;;;;;2.78;1.23;;;;;;;-142.75;29.91;75578.31;5047215;28;20037;-76
2021/06/10 07:39:41;;;;;;;3.10;1.40;;;;;;;-142.75;29.52;75546.81;5042206;28;20407;-76
2021/06/10 07:42:07;;;;;;;5.78;1.30;;;;;;;-142.75;30.37;75513.38;5042867;28;20088;-76
2021/06/10 07:44:32;;;;;;;9.85;1.63;;;;;;;-142.75;30.47;75474.00;5043102;28;20029;-73
2021/06/10 07:46:58;;;;;;;3.78;1.60;;;;;;;-142.75;29.50;75411.03;5045155;28;20025;-75
2021/06/10 07:49:23;;;;;;;3.08;1.45;;;;;;;-142.75;29.30;75385.44;5046123;28;20032;-73
2021/06/10 07:51:49;;;;;;;2.97;1.38;;;;;;;-142.75;28.27;75371.66;5018837;28;20124;-75
2021/06/10 07:54:14;;;;;;;4.53;1.70;;;;;;;-142.75;28.23;75346.09;5043824;28;20026;-76
2021/06/10 07:56:40;;;;;;;3.90;1.40;;;;;;;-142.75;27.23;75306.72;5043277;28;20028;-76
2021/06/10 07:59:05;;;;;;;5.85;1.83;;;;;;;-142.75;28.21;75377.56;5022937;28;20035;-75
2021/06/10 08:01:31;;;;;;;5.75;1.58;;;;;;;-142.75;28.66;75377.56;5045520;28;20021;-76
2021/06/10 08:03:56;;;;;;;4.10;1.60;;;;;;;-142.75;29.20;75361.84;5045307;28;20025;-75
2021/06/10 08:06:22;;;;;;;4.65;1.55;;;;;;;-142.75;28.68;75346.09;5048217;28;20063;-76
2021/06/10 08:08:48;;;;;;;4.15;1.50;;;;;;;-142.75;28.56;75334.28;5042553;28;20025;-76
2021/06/10 08:11:14;;;;;;;4.43;1.70;;;;;;;-142.75;26.24;75281.16;5020967;28;20564;-76
2021/06/10 08:13:39;;;;;;;4.95;1.30;;;;;;;-142.75;27.97;75243.75;5043259;28;20029;-76
2021/06/10 08:16:05;;;;;;;4.82;1.50;;;;;;;-142.75;27.25;75229.97;5023564;28;20136;-76
2021/06/10 08:18:30;;;;;;;3.13;1.45;;;;;;;-142.75;27.36;75302.78;5045421;28;20032;-76
2021/06/10 08:20:57;;;;;;;5.03;1.75;;;;;;;-142.75;28.62;75289.03;5041001;28;20037;-76
2021/06/10 08:23:23;;;;;;;4.10;1.60;;;;;;;-142.75;27.87;75222.13;5026389;28;20060;-77
2021/06/10 08:25:48;;;;;;;4.78;2.00;;;;;;;-142.75;27.50;75192.59;5024289;28;20044;-76
2021/06/10 08:28:14;;;;;;;6.20;2.00;;;;;;;-142.75;29.24;75409.06;5044439;28;20044;-76
2021/06/10 08:30:40;;;;;;;3.25;1.60;;;;;;;-142.75;28.00;75271.31;5041622;28;20031;-75
2021/06/10 08:33:06;;;;;;;4.72;1.50;;;;;;;-142.75;29.06;75428.75;5038245;28;20032;-76
2021/06/10 08:35:32;;;;;;;5.60;2.10;;;;;;;-142.75;29.21;75381.50;5042157;28;20032;-76
2021/06/10 08:37:58;;;;;;;5.63;1.83;;;;;;;-142.75;29.99;75243.75;5045058;28;20024;-76
2021/06/10 08:40:24;;;;;;;4.18;2.63;;;;;;;-142.75;28.57;75292.97;5042019;28;20380;-75
2021/06/10 08:42:49;;;;;;;8.20;2.08;;;;;;;-142.75;29.92;75237.84;5042221;28;20020;-75
2021/06/10 08:45:17;;;;;;;6.15;2.50;;;;;;;-142.75;28.88;75153.25;5024398;28;20380;-75
2021/06/10 08:47:46;;;;;;;4.97;2.35;;;;;;;-142.75;28.51;75163.09;5037800;28;20057;-76
2021/06/10 08:50:18;;;;;;;6.38;2.20;;;;;;;-142.75;27.48;75066.66;5034966;23;20297;-75
2021/06/10 08:52:43;;;;;;;6.78;2.17;;;;;;;-142.75;28.51;75066.66;5020142;28;20055;-75
2021/06/10 08:55:09;;;;;;;4.30;2.50;;;;;;;-142.75;29.49;75357.91;5051542;28;20442;-75
2021/06/10 08:57:35;;;;;;;8.80;2.65;;;;;;;-142.75;28.66;75296.88;5034181;28;20478;-74
2021/06/10 09:00:02;;;;;;;5.10;2.63;;;;;;;-142.75;29.53;75475.97;5051909;28;20108;-75
2021/06/10 09:02:27;;;;;;;8.00;2.35;;;;;;;-142.75;30.70;75350.03;5050800;28;20485;-74
2021/06/10 09:05:00;;;;;;;6.32;2.65;;;;;;;-142.75;28.23;75167.00;5036952;28;20037;-75
2021/06/10 09:07:38;;;;;;;10.40;2.40;;;;;;;-142.75;27.37;75090.28;5013693;28;20078;-75
2021/06/10 09:10:08;;;;;;;6.25;2.65;;;;;;;-142.75;27.08;75023.38;5031630;28;20043;-74
2021/06/10 09:12:49;;;;;;;6.00;2.50;;;;;;;-142.75;26.98;74984.00;5031521;28;20032;-74
2021/06/10 09:15:16;;;;;;;10.93;3.20;;;;;;;-142.75;27.38;75214.25;5014134;28;20030;-74
2021/06/10 09:17:42;;;;;;;5.03;2.50;;;;;;;-142.75;28.08;75190.63;5031608;28;20033;-73
2021/06/10 09:20:19;;;;;;;5.45;2.70;;;;;;;-142.75;27.75;75039.13;5031427;28;20075;-75
2021/06/10 09:22:47;;;;;;;6.95;3.30;;;;;;;-142.75;27.29;75086.34;5031665;28;20032;-76
2021/06/10 09:25:16;;;;;;;4.80;2.22;;;;;;;-142.75;27.53;74964.34;5031748;28;20479;-75
2021/06/10 09:28:01;;;;;;;5.85;2.45;;;;;;;-142.75;27.84;75076.50;5027199;28;20111;-75
2021/06/10 09:30:28;;;;;;;11.35;3.25;;;;;;;-142.75;26.93;74976.16;5033353;28;20082;-74
2021/06/10 09:32:54;;;;;;;7.78;3.15;;;;;;;-142.75;27.53;75082.41;5051419;28;20082;-74
2021/06/10 09:35:27;;;;;;;10.95;2.92;;;;;;;-142.75;27.39;75021.41;5049935;28;20024;-74
2021/06/10 09:37:58;;;;;;;7.68;3.13;;;;;;;-142.75;28.37;74924.97;5051014;28;20557;-75
2021/06/10 09:40:24;;;;;;;8.63;3.58;;;;;;;-142.75;27.22;74903.34;5033091;28;20521;-75
2021/06/10 09:42:49;;;;;;;7.80;3.80;;;;;;;-142.75;27.65;74926.94;5050986;28;20096;-74
2021/06/10 09:45:20;;;;;;;10.05;4.22;;;;;;;-142.75;26.58;74926.94;5050647;28;20474;-74
2021/06/10 09:47:48;;;;;;;7.25;4.40;;;;;;;-142.75;27.29;75200.47;5034196;28;20031;-75
2021/06/10 09:50:21;;;;;;;11.20;4.50;;;;;;;-142.75;28.93;75371.66;5031052;28;20021;-75
2021/06/10 09:52:55;;;;;;;9.55;4.05;;;;;;;-142.75;29.37;75277.22;5031208;28;20039;-75
2021/06/10 09:55:53;;;;;;;7.40;3.97;;;;;;;-142.75;28.82;75198.50;5030776;28;20025;-75
2021/06/10 09:58:24;;;;;;;10.02;4.22;;;;;;;-142.75;29.53;75165.03;5016024;28;20041;-75
2021/06/10 10:00:51;;;;;;;6.60;3.92;;;;;;;-142.75;28.40;75060.75;5017661;28;20078;-74
2021/06/10 10:03:22;;;;;;;8.23;4.00;;;;;;;-142.75;28.92;74991.88;5049014;28;20048;-73
2021/06/10 10:05:47;;;;;;;7.78;3.83;;;;;;;-142.75;27.90;74980.06;5035690;28;20036;-74
2021/06/10 10:08:14;;;;;;;6.22;3.63;;;;;;;-142.75;27.86;75043.03;5031305;28;20419;-73
2021/06/10 10:10:40;;;;;;;5.28;3.10;;;;;;;-142.75;28.32;75011.56;5043144;28;20082;-74
2021/06/10 10:13:09;;;;;;;11.82;4.00;;;;;;;-142.75;26.58;74984.00;5050580;28;20482;-74
2021/06/10 10:15:35;;;;;;;9.10;3.47;;;;;;;-142.75;26.46;75011.56;5032317;28;20023;-74
2021/06/10 10:18:00;;;;;;;7.20;3.63;;;;;;;-142.75;27.62;75088.31;5044469;28;20112;-75
2021/06/10 10:20:26;;;;;;;6.80;3.72;;;;;;;-142.75;27.98;75050.91;5030584;28;20100;-74
2021/06/10 10:22:51;;;;;;;5.78;3.25;;;;;;;-142.75;27.00;75023.38;5030660;28;20029;-74
2021/06/10 10:25:19;;;;;;;7.13;3.17;;;;;;;-142.75;27.12;75041.09;5030555;28;20048;-74
2021/06/10 10:27:44;;;;;;;7.03;3.50;;;;;;;-142.75;26.40;75007.63;5030646;28;20364;-75
2021/06/10 10:30:10;;;;;;;5.03;3.42;;;;;;;-142.75;26.94;75027.31;5049707;28;20043;-75
2021/06/10 10:32:41;;;;;;;5.65;3.47;;;;;;;-142.75;28.03;74999.75;5050345;28;20052;-74
2021/06/10 10:35:28;;;;;;;6.25;3.70;;;;;;;-142.75;26.89;74999.75;5050716;28;20027;-74
2021/06/10 10:37:55;;;;;;;4.75;3.47;;;;;;;-142.75;27.26;75007.63;5050482;28;20107;-74
2021/06/10 10:40:23;;;;;;;6.65;3.85;;;;;;;-142.75;28.77;75033.22;5050447;28;20069;-75
2021/06/10 10:42:51;;;;;;;6.68;4.28;;;;;;;-142.75;27.29;74999.75;5050225;28;20025;-74
2021/06/10 10:45:27;;;;;;;6.65;3.95;;;;;;;-142.75;27.21;74997.78;5048841;28;20028;-75
2021/06/10 10:48:04;;;;;;;7.80;3.95;;;;;;;-142.75;27.59;74985.97;5050292;28;20025;-74
2021/06/10 10:50:34;;;;;;;8.57;4.05;;;;;;;-142.75;27.88;74964.34;5050122;28;20025;-74
2021/06/10 10:52:59;;;;;;;8.30;3.90;;;;;;;-142.75;27.91;75050.91;5051712;28;20033;-74
2021/06/10 10:55:32;;;;;;;7.57;4.38;;;;;;;-142.75;27.98;75109.94;5049840;28;20051;-74
2021/06/10 10:58:02;;;;;;;7.85;4.47;;;;;;;-142.75;28.87;75291.00;5052721;28;20080;-75
2021/06/10 11:00:51;;;;;;;7.88;4.05;;;;;;;-142.75;28.61;75206.38;5054888;28;20430;-73
2021/06/10 11:03:22;;;;;;;7.97;3.50;;;;;;;-142.75;29.34;75086.34;5054428;28;20032;-75
2021/06/10 11:05:47;;;;;;;9.43;4.30;;;;;;;-142.75;28.91;75039.13;5053695;28;20041;-75
2021/06/10 11:08:13;;;;;;;9.30;4.28;;;;;;;-142.75;27.94;75045.00;5054068;28;20031;-75
2021/06/10 11:10:39;;;;;;;6.95;4.15;;;;;;;-142.75;27.49;75017.47;5053721;28;20035;-75
2021/06/10 11:13:22;;;;;;;8.88;4.35;;;;;;;-142.75;27.33;74972.22;5052624;28;20025;-75
2021/06/10 11:15:49;;;;;;;7.28;4.20;;;;;;;-142.75;27.61;74972.22;5054168;28;20431;-75
2021/06/10 11:18:44;;;;;;;8.00;4.05;;;;;;;-142.75;27.32;74934.81;5053816;28;20025;-74
2021/06/10 11:21:41;;;;;;;8.05;4.15;;;;;;;-142.75;27.06;74987.94;5052585;28;20112;-75
2021/06/10 11:24:14;;;;;;;11.85;4.90;;;;;;;-142.75;29.36;75163.09;5053888;28;20032;-75
2021/06/10 11:26:51;;;;;;;8.48;4.30;;;;;;;-142.75;28.98;75106.00;5053494;28;20029;-74
2021/06/10 11:29:17;;;;;;;12.68;4.30;;;;;;;-142.75;29.34;75035.19;5052328;28;20474;-75
2021/06/10 11:31:42;;;;;;;10.23;5.00;;;;;;;-142.75;28.98;75005.66;5053522;28;20032;-74
2021/06/10 11:34:27;;;;;;;8.63;5.45;;;;;;;-142.75;29.92;75224.09;5035362;28;20025;-74